Flight Track Log - Related Links

Times and Time Zones

All times are in EDT time to prevent confusion due to time zone crossing. See the RPA3212 flight status page for this flight to view local times or setup timezone preferences in your user account.

Time Position Orientation Groundspeed Altitude Reporting Facility
EDT Latitude Longitude Course Direction KTS MPH feet Rate Location/Type
Sat 12:02:13 PM 28.0000 -82.5500 352° North 162 186 900  Level Tampa TRACON
Sat 12:03:19 PM 28.0500 -82.5500 360° North 229 264 2,400 2,400 Climbing Tampa TRACON
Sat 12:04:00 PM 28.2955 -82.3908 North  Level Estimated
Sat 12:05:00 PM 28.4022 -82.3431 North  Level Estimated
Sat 12:05:18 PM 28.1975 -82.5558 358° North 254 292 8,300  Level Jacksonville Center
Sat 12:06:00 PM 28.5088 -82.2954 354° North  Level Estimated
Sat 12:06:18 PM 28.2789 -82.5625 356° North 266 306 10,700  Level Jacksonville Center
Sat 12:07:00 PM 28.6154 -82.2475 352° North  Level Estimated
Sat 12:07:18 PM 28.3603 -82.5694 356° North 291 335 11,900  Level Jacksonville Center
Sat 12:08:18 PM 28.4583 -82.5761 357° North 328 377 14,500 2,350 Climbing Jacksonville Center
Sat 12:09:18 PM 28.5606 -82.5806 358° North 349 402 16,600 1,900 Climbing Jacksonville Center
Sat 12:10:18 PM 28.6631 -82.5919 354° North 363 418 18,300 1,850 Climbing Jacksonville Center
Sat 12:11:18 PM 28.7797 -82.6036 355° North 374 430 20,300 2,000 Climbing Jacksonville Center
Sat 12:12:18 PM 28.8883 -82.6200 352° North 379 436 22,300 1,800 Climbing Jacksonville Center
Sat 12:13:18 PM 29.0011 -82.6361 353° North 391 450 23,900 1,450 Climbing Jacksonville Center
Sat 12:14:18 PM 29.1161 -82.6503 354° North 401 461 25,200 1,050 Climbing Jacksonville Center
Sat 12:15:18 PM 29.2308 -82.6664 353° North 412 474 26,000 800 Climbing Jacksonville Center
Sat 12:16:18 PM 29.3497 -82.6831 353° North 417 480 26,800 1,000 Climbing Jacksonville Center
Sat 12:17:18 PM 29.4667 -82.6922 356° North 417 480 28,000 1,250 Climbing Jacksonville Center
Sat 12:18:18 PM 29.5919 -82.6967 358° North 427 491 29,300 1,300 Climbing Jacksonville Center
Sat 12:19:18 PM 29.7111 -82.6942 North 432 497 30,600 1,250 Climbing Jacksonville Center
Sat 12:20:18 PM 29.8300 -82.6939 360° North 427 491 31,800 1,000 Climbing Jacksonville Center
Sat 12:21:18 PM 29.9511 -82.6911 North 422 486 32,600 800 Climbing Jacksonville Center
Sat 12:22:18 PM 30.0575 -82.6886 North 422 486 33,400 700 Climbing Jacksonville Center
Sat 12:23:18 PM 30.1767 -82.6883 360° North 422 486 34,000 650 Climbing Jacksonville Center
Sat 12:24:18 PM 30.2997 -82.6856 North 428 493 34,700 500 Climbing Jacksonville Center
Sat 12:25:18 PM 30.4250 -82.6853 360° North 433 498 35,000 150 Climbing Jacksonville Center
Sat 12:26:18 PM 30.5606 -82.6417 15° North 452 520 35,000  Level Jacksonville Center
Sat 12:27:18 PM 30.6878 -82.5833 22° Northeast 458 527 35,000  Level Jacksonville Center
Sat 12:28:18 PM 30.8108 -82.5272 21° North 470 541 35,000  Level Jacksonville Center
Sat 12:29:18 PM 30.9361 -82.4686 22° Northeast 470 541 35,000  Level Jacksonville Center
Sat 12:30:18 PM 31.0611 -82.4075 23° Northeast 470 541 35,000  Level Jacksonville Center
Sat 12:31:18 PM 31.1842 -82.3558 20° North 470 541 35,000  Level Jacksonville Center
Sat 12:32:18 PM 31.2967 -82.2994 23° Northeast 470 541 35,000  Level Jacksonville Center
Sat 12:33:18 PM 31.4133 -82.2475 21° North 470 541 35,000  Level Jacksonville Center
Sat 12:34:18 PM 31.5339 -82.1564 33° Northeast 470 541 35,000  Level Jacksonville Center
Sat 12:35:18 PM 31.6564 -82.0603 34° Northeast 477 549 35,000  Level Jacksonville Center
Sat 12:36:18 PM 31.7583 -81.9836 33° Northeast 482 555 35,000  Level Jacksonville Center
Sat 12:37:18 PM 31.8847 -81.8869 33° Northeast 487 560 35,000  Level Jacksonville Center
Sat 12:38:18 PM 32.0011 -81.8025 32° Northeast 487 560 35,000  Level Jacksonville Center
Sat 12:39:18 PM 32.1047 -81.7275 32° Northeast 487 560 35,000  Level Jacksonville Center
Sat 12:40:18 PM 32.2292 -81.6328 33° Northeast 481 554 35,000  Level Jacksonville Center
Sat 12:41:18 PM 32.3411 -81.5450 34° Northeast 481 554 35,000  Level Jacksonville Center
Sat 12:42:18 PM 32.4467 -81.4697 31° Northeast 481 554 35,000  Level Jacksonville Center
Sat 12:43:18 PM 32.5583 -81.3817 34° Northeast 475 547 35,000  Level Jacksonville Center
Sat 12:44:18 PM 32.6722 -81.2958 32° Northeast 481 554 35,000  Level Jacksonville Center
Sat 12:45:18 PM 32.7858 -81.2072 33° Northeast 481 554 35,000  Level Jacksonville Center
Sat 12:46:18 PM 32.8994 -81.1186 33° Northeast 481 554 35,000  Level Jacksonville Center
Sat 12:47:18 PM 33.0131 -81.0322 33° Northeast 475 547 35,000  Level Jacksonville Center
Sat 12:48:18 PM 33.1244 -80.9456 33° Northeast 481 554 35,000  Level Jacksonville Center
Sat 12:49:18 PM 33.2397 -80.8561 33° Northeast 481 554 35,000  Level Jacksonville Center
Sat 12:50:18 PM 33.3531 -80.7664 33° Northeast 481 554 35,000  Level Jacksonville Center
Sat 12:51:18 PM 33.4644 -80.6817 32° Northeast 476 548 35,000  Level Jacksonville Center
Sat 12:52:18 PM 33.5775 -80.5917 34° Northeast 476 548 35,000  Level Jacksonville Center
Sat 12:53:18 PM 33.7011 -80.4986 32° Northeast 476 548 35,000  Level Jacksonville Center
Sat 12:54:18 PM 33.8100 -80.4106 34° Northeast 476 548 35,000  Level Jacksonville Center
Sat 12:55:18 PM 33.9208 -80.3197 34° Northeast 476 548 35,000  Level Jacksonville Center
Sat 12:56:18 PM 34.0336 -80.2339 32° Northeast 476 548 35,000  Level Jacksonville Center
Sat 12:57:18 PM 34.1403 -80.1453 35° Northeast 476 548 35,000  Level Jacksonville Center
Sat 12:58:18 PM 34.2508 -80.0539 34° Northeast 476 548 35,000  Level Jacksonville Center
Sat 12:59:51 PM 34.4058 -79.9364 32° Northeast 474 545 35,000  Level Washington Center
Sat 01:00:49 PM 34.5133 -79.8464 35° Northeast 474 545 35,000  Level Washington Center
Sat 01:01:50 PM 34.6231 -79.7561 34° Northeast 469 540 35,000  Level Washington Center
Sat 01:02:50 PM 34.7347 -79.6658 34° Northeast 469 540 35,000  Level Washington Center
Sat 01:03:51 PM 34.8461 -79.5778 33° Northeast 474 545 35,000  Level Washington Center
Sat 01:04:51 PM 34.9556 -79.4869 34° Northeast 474 545 35,000  Level Washington Center
Sat 01:05:49 PM 35.0647 -79.3983 34° Northeast 474 545 35,000  Level Washington Center
Sat 01:06:49 PM 35.1742 -79.3069 34° Northeast 474 545 35,000  Level Washington Center
Sat 01:07:50 PM 35.2811 -79.2203 33° Northeast 474 545 35,000  Level Washington Center
Sat 01:08:51 PM 35.3922 -79.1286 34° Northeast 474 545 35,000  Level Washington Center
Sat 01:09:49 PM 35.4992 -79.0414 34° Northeast 469 540 35,000  Level Washington Center
Sat 01:10:50 PM 35.6061 -78.9514 34° Northeast 469 540 35,000  Level Washington Center
Sat 01:11:51 PM 35.7150 -78.8639 33° Northeast 469 540 35,000  Level Washington Center
Sat 01:12:52 PM 35.8261 -78.7686 35° Northeast 474 545 35,000  Level Washington Center
Sat 01:13:49 PM 35.9456 -78.6683 34° Northeast 474 545 35,000 -102 Level Washington Center
Sat 01:14:50 PM 36.0564 -78.5750 34° Northeast 474 545 34,800 -1,328 Descending Washington Center
Sat 01:15:51 PM 36.1650 -78.4814 35° Northeast 474 545 32,300 -2,521 Descending Washington Center
Sat 01:16:49 PM 36.2736 -78.3900 34° Northeast 474 545 29,800 -2,521 Descending Washington Center
Sat 01:17:50 PM 36.3822 -78.2983 34° Northeast 474 545 27,300 -1,377 Descending Washington Center
Sat 01:18:51 PM 36.4864 -78.2089 35° Northeast 462 532 27,000 -151 Descending Washington Center
Sat 01:19:49 PM 36.5883 -78.1192 35° Northeast 457 526 27,000  Level Washington Center
Sat 01:20:50 PM 36.6906 -78.0294 35° Northeast 452 520 27,000  Level Washington Center
Sat 01:21:51 PM 36.7944 -77.9417 34° Northeast 452 520 27,000  Level Washington Center
Sat 01:22:51 PM 36.8964 -77.8514 35° Northeast 452 520 27,000 -254 Level Washington Center
Sat 01:23:49 PM 37.0064 -77.7689 31° Northeast 458 527 26,500 -763 Descending Washington Center
Sat 01:24:49 PM 37.1200 -77.7147 36° Northeast 444 511 25,500 -992 Descending Washington Center
Sat 01:25:00 PM 37.1072 -77.6501 36° Northeast  Level FlightAware
Sat 01:25:50 PM 37.2314 -77.6631 20° North 430 495 24,500  Level Washington Center
Sat 01:26:51 PM 37.3408 -77.6111 21° North 425 489 23,500 -992 Descending Washington Center
Sat 01:27:51 PM 37.4522 -77.5564 21° North 425 489 22,500 -750 Descending Washington Center
Sat 01:28:51 PM 37.5636 -77.5069 19° North 425 489 22,000 -254 Descending Washington Center
Sat 01:29:49 PM 37.6728 -77.4519 22° Northeast 425 489 22,000 -908 Level Washington Center
Sat 01:30:50 PM 37.7842 -77.3994 20° North 425 489 20,200 -1,967 Descending Washington Center
Sat 01:31:51 PM 37.8892 -77.3494 21° North 419 482 18,000 -2,033 Descending Washington Center
Sat 01:32:51 PM 37.9922 -77.2992 21° North 400 460 16,100 -2,000 Descending Washington Center
Sat 01:33:48 PM 38.0825 -77.2589 19° North 389 448 14,100 -2,017 Descending Washington Center
Sat 01:34:50 PM 38.1789 -77.2136 20° North 379 436 12,100 -2,000 Descending Washington Center
Sat 01:35:51 PM 38.2819 -77.1603 22° Northeast 368 423 10,000 -1,059 Descending Washington Center
Sat 01:36:49 PM 38.3675 -77.1436 North 356 410 10,000  Level Washington Center
Sat 01:37:50 PM 38.4639 -77.1217 10° North 351 404 10,000  Level Washington Center
Sat 01:38:51 PM 38.5619 -77.1025 North 351 404 10,000 -61 Level Washington Center
Sat 01:39:28 PM 38.6333 -77.0833 12° North 322 371 9,900 -1,052 Descending Potomac TRACON
Sat 01:40:28 PM 38.7167 -77.0667 North 298 343 8,300 -1,579 Descending Potomac TRACON
Sat 01:41:22 PM 38.7833 -77.0833 349° North 277 319 6,900 -1,684 Descending Potomac TRACON
Sat 01:42:22 PM 38.8500 -77.1333 330° Northwest 270 311 5,100 -1,810 Descending Potomac TRACON
Sat 01:43:28 PM 38.9000 -77.2000 314° West 265 305 3,100 -1,000 Descending Potomac TRACON
Sat 01:44:28 PM 38.9500 -77.2000 360° North 238 274 3,000 -496 Descending Potomac TRACON
Sat 01:45:29 PM 38.9333 -77.1333 108° East 194 223 2,100 -843 Descending Potomac TRACON
Sat 01:46:29 PM 38.9000 -77.0833 131° Southeast 155 178 1,300 -789 Descending Potomac TRACON
Sat 01:47:23 PM 38.8833 -77.0500 123° Southeast 134 154 600 -778 Descending Potomac TRACON

Login

Don't have an account? Register now (free) for customized features, flight alerts, and more!